Time;durP1;ratioP1;P1;durP2;ratioP2;P2;SDS_P1;SDS_P2;PMS_P1;PMS_P2;Temp;Humidity;BMP_temperature;BMP_pressure;BME280_temperature;BME280_humidity;BME280_pressure;Samples;Min_cycle;Max_cycle;Signal;HPM_P1;HPM_P2
2022/04/16 00:01:37;;;;;;;4.27;3.97;;;7.50;99.90;;;;;;501726;236;27935;-71
2022/04/16 00:03:39;;;;;;;4.30;3.60;;;7.50;99.90;;;;;;501715;236;27623;-71
2022/04/16 00:05:46;;;;;;;3.90;3.60;;;7.40;99.90;;;;;;501757;236;27999;-71
2022/04/16 00:08:06;;;;;;;4.07;3.67;;;7.40;99.90;;;;;;501723;236;27819;-71
2022/04/16 00:09:48;;;;;;;4.20;3.90;;;7.40;99.90;;;;;;500009;237;27843;-72
2022/04/16 00:11:51;;;;;;;4.80;4.40;;;7.40;99.90;;;;;;501727;236;27856;-71
2022/04/16 00:13:52;;;;;;;3.90;3.60;;;7.30;99.90;;;;;;501753;236;27722;-71
2022/04/16 00:16:02;;;;;;;5.40;3.60;;;7.30;99.90;;;;;;501727;236;27867;-73
2022/04/16 00:18:03;;;;;;;3.87;3.57;;;7.30;99.90;;;;;;501791;236;27846;-71
2022/04/16 00:22:12;;;;;;;4.10;3.80;;;7.20;99.90;;;;;;501721;236;27855;-71
2022/04/16 00:24:10;;;;;;;3.63;3.33;;;7.20;99.90;;;;;;495380;237;27818;-72
2022/04/16 00:26:15;;;;;;;4.87;4.40;;;7.20;99.90;;;;;;492937;240;28026;-73
2022/04/16 00:28:16;;;;;;;4.20;3.90;;;7.20;99.90;;;;;;492952;240;28071;-70
2022/04/16 00:30:22;;;;;;;4.23;3.80;;;7.20;99.90;;;;;;492943;240;27962;-70
2022/04/16 00:32:24;;;;;;;3.53;3.30;;;7.10;99.90;;;;;;492953;240;27938;-70
2022/04/16 00:34:24;;;;;;;4.43;4.13;;;7.10;99.90;;;;;;492920;240;27919;-70
2022/04/16 00:36:29;;;;;;;3.83;3.53;;;7.00;99.90;;;;;;492923;240;28398;-71
2022/04/16 00:38:30;;;;;;;3.77;3.47;;;7.00;99.90;;;;;;492933;240;28010;-70
2022/04/16 00:40:31;;;;;;;3.70;3.40;;;7.00;99.90;;;;;;492920;240;27981;-70
2022/04/16 00:42:33;;;;;;;4.07;3.67;;;7.00;99.90;;;;;;492918;240;27941;-71
2022/04/16 00:44:34;;;;;;;3.20;3.00;;;7.00;99.90;;;;;;492872;240;28864;-70
2022/04/16 00:46:36;;;;;;;2.90;2.70;;;7.00;99.90;;;;;;492856;240;28160;-70
2022/04/16 00:48:36;;;;;;;3.50;3.20;;;7.10;99.90;;;;;;492900;240;28559;-70
2022/04/16 00:50:38;;;;;;;3.67;3.37;;;7.00;99.90;;;;;;492937;240;28334;-70
2022/04/16 00:52:39;;;;;;;4.07;3.67;;;7.00;99.90;;;;;;492903;240;28616;-73
2022/04/16 00:54:40;;;;;;;4.37;3.97;;;7.00;99.90;;;;;;492912;240;27561;-70
2022/04/16 00:56:42;;;;;;;4.27;3.87;;;6.90;99.90;;;;;;492849;241;27933;-71
2022/04/16 00:58:43;;;;;;;4.60;4.13;;;6.90;99.90;;;;;;492908;240;27778;-73
2022/04/16 01:00:48;;;;;;;3.70;3.40;;;6.80;99.90;;;;;;492928;240;28624;-73
2022/04/16 01:02:49;;;;;;;4.00;3.50;;;6.80;99.90;;;;;;492935;240;29627;-71
2022/04/16 01:04:51;;;;;;;3.70;3.40;;;6.90;99.90;;;;;;492936;240;28606;-71
2022/04/16 01:06:55;;;;;;;3.43;3.23;;;6.90;99.90;;;;;;492945;240;28214;-73
2022/04/16 01:08:56;;;;;;;3.27;3.07;;;6.90;99.90;;;;;;492972;240;28030;-70
2022/04/16 01:11:04;;;;;;;3.00;2.80;;;6.90;99.90;;;;;;492935;240;28044;-71
2022/04/16 01:13:05;;;;;;;3.03;2.83;;;6.90;99.90;;;;;;492958;240;28413;-73
2022/04/16 01:15:10;;;;;;;2.60;2.40;;;6.80;99.90;;;;;;492954;240;28832;-70
2022/04/16 01:17:10;;;;;;;2.83;2.63;;;6.80;99.90;;;;;;492850;241;28413;-72
2022/04/16 01:19:11;;;;;;;2.83;2.63;;;6.80;99.90;;;;;;492913;240;28408;-71
2022/04/16 01:21:12;;;;;;;2.70;2.50;;;6.80;99.90;;;;;;492961;240;28390;-70
2022/04/16 01:23:15;;;;;;;2.70;2.50;;;6.80;99.90;;;;;;492969;240;28267;-72
2022/04/16 01:25:15;;;;;;;2.53;2.43;;;6.80;99.90;;;;;;492846;240;27939;-73
2022/04/16 01:27:22;;;;;;;2.50;2.40;;;6.80;99.90;;;;;;492962;240;27940;-73
2022/04/16 01:29:23;;;;;;;2.10;2.00;;;6.70;99.90;;;;;;492952;240;27437;-72
2022/04/16 01:31:24;;;;;;;3.03;2.83;;;6.70;99.90;;;;;;492933;240;28064;-72
2022/04/16 01:33:26;;;;;;;3.47;3.17;;;6.60;99.90;;;;;;492900;240;28808;-70
2022/04/16 01:35:27;;;;;;;3.37;2.60;;;6.60;99.90;;;;;;492962;240;28584;-70
2022/04/16 01:37:34;;;;;;;3.37;3.17;;;6.60;99.90;;;;;;492930;240;27955;-71
2022/04/16 01:39:33;;;;;;;3.80;3.50;;;6.60;99.90;;;;;;492835;241;28462;-73
2022/04/16 01:41:41;;;;;;;4.17;3.80;;;6.60;99.90;;;;;;492546;241;29260;-76
2022/04/16 01:43:42;;;;;;;4.53;3.67;;;6.50;99.90;;;;;;492962;240;27826;-75
2022/04/16 01:45:43;;;;;;;3.67;3.37;;;6.50;99.90;;;;;;492956;240;28737;-73
2022/04/16 01:47:45;;;;;;;3.40;3.10;;;6.50;99.90;;;;;;492966;240;28210;-73
2022/04/16 01:49:46;;;;;;;4.07;3.77;;;6.50;99.90;;;;;;492967;240;28299;-72
2022/04/16 01:51:48;;;;;;;3.80;3.50;;;6.50;99.90;;;;;;492967;240;27723;-71
2022/04/16 01:53:49;;;;;;;3.80;3.47;;;6.50;99.90;;;;;;492961;240;28592;-73
2022/04/16 01:55:50;;;;;;;4.33;4.03;;;6.50;99.90;;;;;;492935;240;28747;-70
2022/04/16 01:57:51;;;;;;;4.60;4.20;;;6.40;99.90;;;;;;492933;240;28127;-73
2022/04/16 01:59:52;;;;;;;5.28;4.68;;;6.30;99.90;;;;;;492924;240;28258;-71
2022/04/16 02:01:56;;;;;;;4.53;4.12;;;6.30;99.90;;;;;;492971;240;27902;-70
2022/04/16 02:03:55;;;;;;;5.22;4.82;;;6.20;99.90;;;;;;492794;241;28064;-73
2022/04/16 02:05:56;;;;;;;4.80;4.40;;;6.20;99.90;;;;;;492927;240;27497;-71
2022/04/16 02:07:58;;;;;;;4.80;4.35;;;6.30;99.90;;;;;;492911;240;28306;-74
2022/04/16 02:10:00;;;;;;;4.53;4.23;;;6.30;99.90;;;;;;492952;240;27472;-72
2022/04/16 02:12:00;;;;;;;3.97;3.40;;;6.30;99.90;;;;;;492898;241;27896;-71
2022/04/16 02:14:02;;;;;;;4.28;3.87;;;6.40;99.90;;;;;;492918;240;28806;-74
2022/04/16 02:16:20;;;;;;;4.10;3.80;;;6.30;99.90;;;;;;492928;240;27666;-71
2022/04/16 02:18:23;;;;;;;4.20;3.73;;;6.30;99.90;;;;;;492958;240;28695;-70
2022/04/16 02:20:32;;;;;;;4.00;3.70;;;6.30;99.90;;;;;;492844;241;28746;-73
2022/04/16 02:22:33;;;;;;;4.13;3.80;;;6.30;99.90;;;;;;492980;240;27466;-72
2022/04/16 02:24:35;;;;;;;3.90;3.60;;;6.30;99.90;;;;;;492922;240;28729;-70
2022/04/16 02:26:36;;;;;;;4.70;4.20;;;6.30;99.90;;;;;;492955;240;27470;-70
2022/04/16 02:28:37;;;;;;;4.12;3.83;;;6.30;99.90;;;;;;492984;240;27576;-73
2022/04/16 02:30:40;;;;;;;4.20;3.90;;;6.30;99.90;;;;;;492958;240;27445;-71
2022/04/16 02:32:39;;;;;;;4.40;4.00;;;6.40;99.90;;;;;;492852;241;27929;-72
2022/04/16 02:34:41;;;;;;;5.10;4.60;;;6.30;99.90;;;;;;492995;240;28030;-70
2022/04/16 02:36:43;;;;;;;4.40;4.00;;;6.30;99.90;;;;;;493002;240;27442;-70
2022/04/16 02:40:48;;;;;;;4.22;3.85;;;6.40;99.90;;;;;;492971;240;28784;-71
2022/04/16 02:42:51;;;;;;;6.53;5.28;;;6.40;99.90;;;;;;492972;240;27961;-71
2022/04/16 02:47:13;;;;;;;4.13;3.83;;;6.40;99.90;;;;;;492978;241;28791;-71
2022/04/16 02:49:13;;;;;;;4.27;3.87;;;6.40;99.90;;;;;;492890;241;28746;-72
2022/04/16 02:51:14;;;;;;;4.45;4.05;;;6.40;99.90;;;;;;492985;240;27999;-72
2022/04/16 02:53:16;;;;;;;4.40;4.03;;;6.40;99.90;;;;;;492952;240;27976;-71
2022/04/16 02:55:17;;;;;;;3.83;3.53;;;6.40;99.90;;;;;;492947;240;27891;-72
2022/04/16 02:57:18;;;;;;;3.37;3.00;;;6.30;99.90;;;;;;492953;240;27512;-73
2022/04/16 02:59:19;;;;;;;3.90;3.60;;;6.30;99.90;;;;;;492962;240;27926;-72
2022/04/16 03:01:21;;;;;;;4.90;4.20;;;6.30;99.90;;;;;;492967;240;28568;-72
2022/04/16 03:03:25;;;;;;;4.70;4.20;;;6.30;99.90;;;;;;492963;240;27474;-71
2022/04/16 03:05:26;;;;;;;3.75;3.42;;;6.30;99.90;;;;;;492962;240;27472;-71
2022/04/16 03:07:27;;;;;;;3.67;3.37;;;6.20;99.90;;;;;;492969;240;28322;-72
2022/04/16 03:09:29;;;;;;;3.80;3.50;;;6.20;99.90;;;;;;492910;240;27953;-72
2022/04/16 03:11:31;;;;;;;4.30;3.90;;;6.20;99.90;;;;;;492961;240;27579;-74
2022/04/16 03:13:34;;;;;;;3.85;3.55;;;6.10;99.90;;;;;;492889;241;27497;-73
2022/04/16 03:17:55;;;;;;;3.65;3.40;;;6.10;99.90;;;;;;492945;241;27956;-70
2022/04/16 03:19:58;;;;;;;3.20;3.00;;;6.10;99.90;;;;;;492962;240;28025;-72
2022/04/16 03:21:59;;;;;;;3.45;3.15;;;6.10;99.90;;;;;;492946;240;27446;-71
2022/04/16 03:24:07;;;;;;;3.60;3.30;;;6.00;99.90;;;;;;492956;240;27917;-71
2022/04/16 03:26:08;;;;;;;3.90;3.60;;;6.00;99.90;;;;;;492947;240;27445;-71
2022/04/16 03:28:09;;;;;;;3.92;3.60;;;6.00;99.90;;;;;;492942;240;28738;-70
2022/04/16 03:30:11;;;;;;;4.72;3.95;;;5.90;99.90;;;;;;492952;240;28059;-73
2022/04/16 03:32:13;;;;;;;4.22;3.78;;;5.80;99.90;;;;;;492987;240;27497;-70
2022/04/16 03:34:14;;;;;;;5.20;4.30;;;5.80;99.90;;;;;;492971;240;27873;-71
2022/04/16 03:36:16;;;;;;;4.32;3.92;;;5.80;99.90;;;;;;492961;240;28013;-71
2022/04/16 03:38:17;;;;;;;4.72;4.32;;;5.80;99.90;;;;;;492958;240;27443;-72
2022/04/16 03:40:19;;;;;;;4.05;3.75;;;5.90;99.90;;;;;;492974;240;27955;-71
2022/04/16 03:42:20;;;;;;;4.37;3.97;;;6.00;99.90;;;;;;492914;240;27996;-72
2022/04/16 03:44:21;;;;;;;4.00;3.70;;;6.10;99.90;;;;;;492932;240;27533;-70
2022/04/16 03:46:22;;;;;;;4.50;4.10;;;6.10;99.90;;;;;;492940;240;27473;-71
2022/04/16 03:48:24;;;;;;;3.83;3.53;;;6.20;99.90;;;;;;492971;240;27530;-70
2022/04/16 03:50:25;;;;;;;4.90;3.30;;;6.20;99.90;;;;;;492972;240;27889;-70
2022/04/16 03:52:26;;;;;;;3.80;3.50;;;6.20;99.90;;;;;;492916;240;28332;-71
2022/04/16 04:01:32;;;;;;;3.90;3.60;;;6.10;99.90;;;;;;492969;241;27459;-71
2022/04/16 04:03:33;;;;;;;3.43;3.17;;;6.10;99.90;;;;;;492935;240;28769;-73
2022/04/16 04:05:37;;;;;;;4.28;3.30;;;6.10;99.90;;;;;;492937;240;28464;-72
2022/04/16 04:07:37;;;;;;;3.00;2.80;;;6.10;99.90;;;;;;492798;241;27913;-72
2022/04/16 04:09:38;;;;;;;3.17;2.95;;;6.20;99.90;;;;;;492953;240;28772;-70
2022/04/16 04:11:39;;;;;;;5.00;3.03;;;6.20;99.90;;;;;;492974;240;28056;-72
2022/04/16 04:13:41;;;;;;;3.17;2.92;;;6.10;99.90;;;;;;492971;240;27939;-70
2022/04/16 04:15:42;;;;;;;3.70;3.40;;;6.10;99.90;;;;;;492966;240;27461;-71
2022/04/16 04:17:43;;;;;;;3.28;3.05;;;6.00;99.90;;;;;;492977;240;27450;-71
2022/04/16 04:19:44;;;;;;;3.60;3.30;;;6.10;99.90;;;;;;492979;240;27438;-72
2022/04/16 04:21:46;;;;;;;3.05;2.85;;;6.10;99.90;;;;;;492993;240;27572;-71
2022/04/16 04:25:51;;;;;;;3.40;3.20;;;6.10;99.90;;;;;;492964;240;27472;-75
2022/04/16 04:27:53;;;;;;;3.45;3.25;;;6.00;99.90;;;;;;492975;240;28217;-72
2022/04/16 04:30:01;;;;;;;3.37;3.08;;;6.00;99.90;;;;;;492915;240;27958;-70
2022/04/16 04:31:58;;;;;;;3.30;3.08;;;5.90;99.90;;;;;;492692;241;27493;-70
2022/04/16 04:33:59;;;;;;;4.00;3.50;;;5.90;99.90;;;;;;492939;240;28814;-73
2022/04/16 04:36:09;;;;;;;3.65;3.35;;;5.80;99.90;;;;;;492948;240;27881;-72
2022/04/16 04:38:11;;;;;;;4.80;4.32;;;5.80;99.90;;;;;;492979;240;27520;-72
2022/04/16 04:40:12;;;;;;;5.12;4.62;;;5.80;99.90;;;;;;492950;240;28058;-73
2022/04/16 04:42:23;;;;;;;7.12;4.25;;;5.80;99.90;;;;;;492935;240;27908;-72
2022/04/16 04:44:24;;;;;;;4.45;4.05;;;5.80;99.90;;;;;;492962;240;27503;-71
2022/04/16 04:46:31;;;;;;;5.75;4.37;;;5.80;99.90;;;;;;492948;240;27537;-73
2022/04/16 04:48:32;;;;;;;5.22;4.80;;;5.90;99.90;;;;;;492969;240;27500;-71
2022/04/16 04:50:36;;;;;;;4.57;4.12;;;5.90;99.90;;;;;;492969;240;27918;-70
2022/04/16 04:52:38;;;;;;;5.07;4.57;;;5.80;99.90;;;;;;492951;240;27560;-70
2022/04/16 04:54:39;;;;;;;4.60;4.22;;;5.90;99.90;;;;;;492923;240;27919;-73
2022/04/16 04:56:40;;;;;;;5.75;5.00;;;5.90;99.90;;;;;;492999;240;28030;-73
2022/04/16 04:58:42;;;;;;;4.87;4.32;;;5.90;99.90;;;;;;492915;240;27433;-72
2022/04/16 05:00:43;;;;;;;4.65;4.25;;;6.00;99.90;;;;;;492943;240;27483;-72
2022/04/16 05:02:44;;;;;;;5.60;5.00;;;5.90;99.90;;;;;;492938;240;27537;-70
2022/04/16 05:04:46;;;;;;;6.07;5.45;;;5.80;99.90;;;;;;492932;240;27937;-73
2022/04/16 05:06:47;;;;;;;6.22;5.30;;;5.70;99.90;;;;;;492938;240;28122;-75
2022/04/16 05:08:51;;;;;;;8.70;6.35;;;5.70;99.90;;;;;;492965;240;27440;-73
2022/04/16 05:10:52;;;;;;;7.53;6.53;;;5.70;99.90;;;;;;492956;240;27444;-70
2022/04/16 05:12:55;;;;;;;6.72;5.95;;;5.80;99.90;;;;;;492949;240;27903;-70
2022/04/16 05:14:57;;;;;;;6.32;5.72;;;5.90;99.90;;;;;;492997;240;27472;-71
2022/04/16 05:16:58;;;;;;;6.28;5.68;;;5.90;99.90;;;;;;492959;240;27855;-70
2022/04/16 05:19:00;;;;;;;7.10;6.10;;;6.00;99.90;;;;;;492928;240;27950;-71
2022/04/16 05:21:02;;;;;;;6.20;5.53;;;6.00;99.90;;;;;;492915;240;27554;-70
2022/04/16 05:23:09;;;;;;;6.78;5.78;;;6.00;99.90;;;;;;492944;240;27910;-70
2022/04/16 05:25:10;;;;;;;6.60;6.00;;;6.00;99.90;;;;;;492967;240;27437;-70
2022/04/16 05:27:12;;;;;;;8.38;6.53;;;6.10;99.90;;;;;;492945;240;28789;-70
2022/04/16 05:29:14;;;;;;;7.40;6.03;;;6.10;99.90;;;;;;492939;240;27503;-71
2022/04/16 05:31:19;;;;;;;6.90;6.20;;;6.10;99.90;;;;;;492935;240;27882;-70
2022/04/16 05:35:37;;;;;;;7.80;6.37;;;6.40;99.90;;;;;;492976;241;28794;-70
2022/04/16 05:37:39;;;;;;;7.82;6.68;;;6.50;99.90;;;;;;492993;240;27653;-70
2022/04/16 05:39:40;;;;;;;7.87;6.85;;;6.50;99.90;;;;;;492975;240;27463;-70
2022/04/16 05:41:41;;;;;;;7.83;6.90;;;6.60;99.90;;;;;;492964;241;27533;-69
2022/04/16 05:43:43;;;;;;;10.17;7.90;;;6.70;99.90;;;;;;492989;240;29187;-70
2022/04/16 05:45:45;;;;;;;8.97;7.70;;;6.70;99.90;;;;;;492988;240;28743;-70
2022/04/16 05:48:04;;;;;;;8.50;7.23;;;6.80;99.90;;;;;;492973;240;27815;-72
2022/04/16 05:50:05;;;;;;;9.80;7.77;;;6.80;99.90;;;;;;492962;240;27736;-70
2022/04/16 05:52:07;;;;;;;12.00;8.00;;;6.90;99.90;;;;;;492948;240;27782;-70
2022/04/16 05:54:08;;;;;;;8.90;7.10;;;7.00;99.90;;;;;;493038;240;27918;-72
2022/04/16 05:56:10;;;;;;;10.50;7.57;;;7.10;99.90;;;;;;492926;240;27980;-70
2022/04/16 05:58:10;;;;;;;8.43;7.20;;;7.00;99.90;;;;;;492985;240;28189;-70
2022/04/16 06:00:13;;;;;;;7.17;6.10;;;7.00;99.90;;;;;;492958;240;29422;-71
2022/04/16 06:02:13;;;;;;;8.40;6.90;;;7.10;99.90;;;;;;492899;241;27758;-70
2022/04/16 06:06:18;;;;;;;8.20;6.47;;;7.20;99.90;;;;;;492973;240;28022;-71
2022/04/16 06:08:29;;;;;;;9.93;7.40;;;7.20;99.90;;;;;;492956;240;27986;-72
2022/04/16 06:10:30;;;;;;;7.50;6.70;;;7.20;99.90;;;;;;492972;240;28154;-70
2022/04/16 06:12:31;;;;;;;9.23;7.00;;;7.30;99.90;;;;;;493013;240;27904;-73
2022/04/16 06:14:33;;;;;;;8.00;7.03;;;7.20;99.90;;;;;;492997;240;27481;-72
2022/04/16 06:16:40;;;;;;;9.00;7.10;;;7.30;99.90;;;;;;492995;240;28348;-71
2022/04/16 06:18:41;;;;;;;8.90;7.17;;;7.40;99.90;;;;;;493028;240;27848;-73
2022/04/16 06:20:44;;;;;;;8.23;7.27;;;7.40;99.90;;;;;;492959;241;27906;-73
2022/04/16 06:22:45;;;;;;;9.30;6.93;;;7.50;99.90;;;;;;492995;240;28387;-70
2022/04/16 06:24:48;;;;;;;8.57;7.10;;;7.50;99.90;;;;;;493001;240;27949;-70
2022/04/16 06:26:49;;;;;;;7.77;6.90;;;7.60;99.90;;;;;;493027;240;27945;-70
2022/04/16 06:28:50;;;;;;;7.57;6.77;;;7.80;99.90;;;;;;492985;240;27890;-72
2022/04/16 06:30:57;;;;;;;6.73;5.97;;;7.90;99.90;;;;;;492981;240;28142;-72
2022/04/16 06:32:59;;;;;;;8.73;6.17;;;8.00;99.90;;;;;;493011;240;28045;-71
2022/04/16 06:37:23;;;;;;;9.07;6.87;;;8.10;99.90;;;;;;492981;241;29091;-72
2022/04/16 06:39:27;;;;;;;7.10;6.10;;;8.20;99.90;;;;;;493023;240;28283;-73
2022/04/16 06:41:28;;;;;;;7.13;6.17;;;8.30;99.90;;;;;;493026;240;28346;-70
2022/04/16 06:43:36;;;;;;;7.37;6.00;;;8.30;99.90;;;;;;493013;240;27463;-72
2022/04/16 06:45:38;;;;;;;6.77;5.60;;;8.50;99.90;;;;;;493002;240;27954;-70
2022/04/16 06:47:38;;;;;;;8.67;6.00;;;8.50;99.90;;;;;;492986;240;27562;-73
2022/04/16 06:49:39;;;;;;;8.77;6.10;;;8.60;99.90;;;;;;493021;240;27931;-72
2022/04/16 06:51:46;;;;;;;6.03;5.20;;;8.60;99.90;;;;;;493018;240;28289;-73
2022/04/16 06:53:48;;;;;;;6.50;5.43;;;8.60;99.90;;;;;;493013;240;27922;-71
2022/04/16 06:56:00;;;;;;;6.73;5.53;;;8.70;99.90;;;;;;492998;240;28029;-73
2022/04/16 06:57:58;;;;;;;7.03;5.63;;;8.60;99.90;;;;;;492844;241;27633;-70
2022/04/16 07:00:03;;;;;;;6.03;5.30;;;8.60;99.90;;;;;;493039;240;27911;-72
2022/04/16 07:02:03;;;;;;;7.23;6.23;;;8.70;99.90;;;;;;493000;240;28034;-72
2022/04/16 07:04:13;;;;;;;6.73;6.03;;;8.60;99.90;;;;;;493011;240;27928;-72
2022/04/16 07:06:15;;;;;;;7.30;5.30;;;8.60;99.90;;;;;;493010;240;27796;-75
2022/04/16 07:08:22;;;;;;;5.93;5.03;;;8.80;99.90;;;;;;493060;240;28108;-72
2022/04/16 07:10:23;;;;;;;6.80;5.30;;;8.80;99.90;;;;;;493047;240;27998;-71
2022/04/16 07:12:28;;;;;;;6.03;5.40;;;8.80;99.90;;;;;;493018;240;28079;-73
2022/04/16 07:14:29;;;;;;;8.53;5.50;;;8.80;99.90;;;;;;493050;240;28318;-71
2022/04/16 07:16:34;;;;;;;6.43;5.87;;;8.90;99.90;;;;;;493012;241;28671;-73
2022/04/16 07:18:35;;;;;;;6.50;5.50;;;9.10;99.90;;;;;;493000;240;27809;-72
2022/04/16 07:20:36;;;;;;;6.43;5.60;;;9.10;99.90;;;;;;492985;240;28327;-73
2022/04/16 07:22:37;;;;;;;6.10;5.50;;;9.20;99.90;;;;;;492972;240;27909;-73
2022/04/16 07:24:53;;;;;;;5.50;4.70;;;9.00;99.90;;;;;;493018;240;28374;-72
2022/04/16 07:26:55;;;;;;;5.13;4.63;;;9.10;99.90;;;;;;493012;240;27675;-70
2022/04/16 07:29:05;;;;;;;4.70;4.30;;;9.40;99.90;;;;;;492966;240;28087;-72
2022/04/16 07:31:06;;;;;;;4.80;4.40;;;9.40;99.90;;;;;;493017;240;28033;-71
2022/04/16 07:33:13;;;;;;;5.23;4.30;;;9.40;99.90;;;;;;492988;241;27812;-73
2022/04/16 07:35:14;;;;;;;6.70;5.43;;;9.40;99.90;;;;;;493012;240;28053;-73
2022/04/16 07:37:31;;;;;;;5.80;4.83;;;9.40;99.90;;;;;;492984;240;27988;-73
2022/04/16 07:39:32;;;;;;;6.00;4.80;;;9.60;99.90;;;;;;493001;240;27999;-71
2022/04/16 07:41:36;;;;;;;5.80;5.30;;;9.50;99.90;;;;;;492967;240;27934;-73
2022/04/16 07:43:38;;;;;;;5.47;4.97;;;9.50;99.90;;;;;;492993;240;27985;-70
2022/04/16 07:45:45;;;;;;;6.10;5.50;;;9.40;99.90;;;;;;493010;240;28047;-73
2022/04/16 07:47:47;;;;;;;5.93;5.33;;;9.50;99.90;;;;;;492982;240;27963;-73
2022/04/16 07:51:52;;;;;;;5.83;5.27;;;9.60;99.90;;;;;;493021;240;28317;-73
2022/04/16 07:54:02;;;;;;;4.60;4.20;;;9.60;99.90;;;;;;492996;240;28212;-73
2022/04/16 07:56:03;;;;;;;5.43;4.93;;;9.70;99.90;;;;;;493004;240;28012;-73
2022/04/16 07:58:09;;;;;;;5.60;5.03;;;9.80;99.90;;;;;;492958;240;27894;-73
2022/04/16 08:00:10;;;;;;;5.50;4.93;;;9.80;99.90;;;;;;493020;240;28538;-73
2022/04/16 08:02:29;;;;;;;5.10;4.50;;;10.00;99.90;;;;;;492984;240;28523;-73
2022/04/16 08:04:30;;;;;;;6.27;4.77;;;10.10;99.90;;;;;;492952;240;27936;-73
2022/04/16 08:06:44;;;;;;;4.80;4.33;;;9.90;99.90;;;;;;492958;240;28029;-73
2022/04/16 08:08:45;;;;;;;5.70;4.43;;;9.90;99.90;;;;;;492990;240;28144;-73
2022/04/16 08:13:09;;;;;;;6.77;4.47;;;9.90;99.90;;;;;;492995;241;28482;-73
2022/04/16 08:15:25;;;;;;;4.87;4.03;;;10.00;99.90;;;;;;492981;240;28681;-73
2022/04/16 08:17:27;;;;;;;6.90;5.20;;;10.20;99.90;;;;;;493011;240;28475;-73
2022/04/16 08:19:44;;;;;;;5.20;4.40;;;10.20;99.90;;;;;;493012;240;28747;-73
2022/04/16 08:21:44;;;;;;;8.77;5.17;;;10.40;99.90;;;;;;492956;240;28699;-71
2022/04/16 08:26:17;;;;;;;4.70;4.30;;;10.50;99.90;;;;;;493001;241;28692;-73
2022/04/16 08:28:26;;;;;;;4.90;4.50;;;10.40;99.90;;;;;;492975;241;28243;-73
2022/04/16 08:30:46;;;;;;;3.97;3.63;;;10.60;99.90;;;;;;492974;240;28256;-71
2022/04/16 08:32:47;;;;;;;4.40;3.80;;;10.40;99.90;;;;;;493003;240;28585;-74
2022/04/16 08:37:12;;;;;;;3.70;3.23;;;10.50;99.90;;;;;;492975;241;28851;-71
2022/04/16 08:39:27;;;;;;;3.70;3.40;;;10.70;99.90;;;;;;492980;240;28216;-74
2022/04/16 08:41:27;;;;;;;3.80;3.40;;;10.50;99.90;;;;;;492958;241;28704;-72
2022/04/16 08:43:34;;;;;;;4.27;3.87;;;10.20;99.90;;;;;;492965;240;28703;-73
2022/04/16 08:45:35;;;;;;;3.73;3.03;;;10.50;99.90;;;;;;492982;240;28780;-73
2022/04/16 08:47:49;;;;;;;3.60;3.30;;;10.70;99.90;;;;;;492981;240;28563;-73
2022/04/16 08:49:50;;;;;;;3.80;3.50;;;11.00;99.90;;;;;;492985;240;28226;-73
2022/04/16 08:51:57;;;;;;;3.50;3.20;;;11.10;99.90;;;;;;492945;240;28353;-73
2022/04/16 08:53:58;;;;;;;3.20;3.00;;;11.00;99.90;;;;;;492996;240;28395;-73
2022/04/16 08:56:12;;;;;;;3.70;3.00;;;10.70;99.90;;;;;;492986;240;28818;-73
2022/04/16 08:58:13;;;;;;;3.47;3.17;;;10.70;99.90;;;;;;492976;240;28247;-73
2022/04/16 09:02:47;;;;;;;2.80;2.60;;;10.40;99.90;;;;;;492968;241;28395;-73
2022/04/16 09:04:48;;;;;;;2.83;2.60;;;10.60;99.90;;;;;;492982;240;28139;-73
2022/04/16 09:07:05;;;;;;;3.30;3.00;;;11.00;99.90;;;;;;492949;240;28361;-73
2022/04/16 09:09:07;;;;;;;3.20;2.87;;;10.90;99.90;;;;;;493034;240;28272;-73
2022/04/16 09:11:26;;;;;;;2.60;2.40;;;11.00;99.90;;;;;;492974;240;28569;-73
2022/04/16 09:13:25;;;;;;;3.00;2.80;;;11.00;99.90;;;;;;492728;241;28210;-73
2022/04/16 09:15:34;;;;;;;3.13;2.70;;;10.90;99.90;;;;;;492949;240;28348;-73
2022/04/16 09:17:34;;;;;;;3.00;2.80;;;10.80;99.90;;;;;;492890;241;28359;-73
2022/04/16 09:19:47;;;;;;;2.70;2.50;;;10.90;99.90;;;;;;493008;240;28549;-73
2022/04/16 09:21:49;;;;;;;2.60;2.40;;;10.90;99.90;;;;;;493029;240;28453;-73
2022/04/16 09:26:20;;;;;;;2.77;2.07;;;11.50;99.90;;;;;;493027;241;28562;-73
2022/04/16 09:30:46;;;;;;;2.70;2.50;;;12.10;99.90;;;;;;492982;241;28787;-73
2022/04/16 09:33:05;;;;;;;2.40;2.20;;;12.00;99.90;;;;;;476232;249;28050;-73
2022/04/16 09:35:05;;;;;;;2.43;2.23;;;11.90;99.90;;;;;;476401;249;28281;-73
2022/04/16 09:39:31;;;;;;;2.03;1.93;;;11.70;99.90;;;;;;476533;249;28182;-73
2022/04/16 09:44:07;;;;;;;2.77;2.43;;;12.10;99.90;;;;;;476513;249;28359;-73
2022/04/16 09:46:14;;;;;;;1.77;1.67;;;12.20;99.90;;;;;;476551;249;28471;-73
2022/04/16 09:50:41;;;;;;;2.20;2.10;;;;;;;;;;476578;249;28508;-73
2022/04/16 09:53:02;;;;;;;2.00;1.90;;;11.70;99.90;;;;;;476539;249;27063;-73
2022/04/16 09:55:01;;;;;;;2.40;2.07;;;12.10;99.90;;;;;;476434;249;28474;-73
2022/04/16 09:59:25;;;;;;;2.10;2.00;;;11.70;99.90;;;;;;476572;249;28278;-73
2022/04/16 10:03:42;;;;;;;2.07;1.97;;;12.10;99.90;;;;;;476586;249;28235;-72
2022/04/16 10:07:53;;;;;;;1.67;1.60;;;11.50;99.90;;;;;;476576;249;28380;-72
2022/04/16 10:10:17;;;;;;;2.50;2.30;;;11.30;99.90;;;;;;476515;249;28553;-72
2022/04/16 10:19:12;;;;;;;1.90;1.80;;;11.50;99.90;;;;;;492996;241;28932;-73
2022/04/16 10:23:39;;;;;;;1.93;1.83;;;11.60;99.90;;;;;;493034;241;27855;-71
2022/04/16 10:25:59;;;;;;;1.93;1.83;;;11.40;99.90;;;;;;492983;240;28451;-74
2022/04/16 10:28:00;;;;;;;1.80;1.70;;;11.50;99.90;;;;;;493001;240;28217;-71
2022/04/16 10:32:37;;;;;;;2.77;1.80;;;11.50;99.90;;;;;;493007;241;28728;-72
2022/04/16 10:34:39;;;;;;;1.93;1.83;;;11.70;99.90;;;;;;492979;240;28406;-71
2022/04/16 10:36:47;;;;;;;2.10;1.90;;;11.80;99.90;;;;;;492917;240;28525;-71
2022/04/16 10:38:51;;;;;;;1.77;1.67;;;11.70;99.90;;;;;;493031;240;28416;-71
2022/04/16 10:41:02;;;;;;;1.97;1.60;;;11.90;99.90;;;;;;492844;241;29191;-73
2022/04/16 10:43:04;;;;;;;1.83;1.73;;;12.30;99.90;;;;;;493014;240;28248;-71
2022/04/16 10:45:21;;;;;;;2.40;1.83;;;12.10;99.90;;;;;;492996;240;29190;-73
2022/04/16 10:47:26;;;;;;;2.10;2.00;;;;;;;;;;493004;240;28355;-73
2022/04/16 10:49:35;;;;;;;1.70;1.60;;;11.50;99.90;;;;;;492894;240;27348;-74
2022/04/16 10:51:36;;;;;;;1.70;1.60;;;11.70;99.90;;;;;;493023;240;28416;-71
2022/04/16 10:53:50;;;;;;;2.00;1.90;;;12.00;99.90;;;;;;493047;240;28952;-74
2022/04/16 10:55:51;;;;;;;1.70;1.60;;;12.00;99.90;;;;;;493050;240;28994;-73
2022/04/16 11:02:37;;;;;;;3.60;2.13;;;12.00;99.90;;;;;;489053;243;28760;-71
2022/04/16 11:04:49;;;;;;;2.30;2.10;;;;;;;;;;488969;243;28402;-74
2022/04/16 11:07:08;;;;;;;4.90;3.33;;;12.20;99.90;;;;;;489057;243;26942;-71
2022/04/16 11:09:07;;;;;;;2.73;2.53;;;12.30;99.90;;;;;;488855;243;28622;-74
2022/04/16 11:13:34;;;;;;;2.50;2.30;;;12.20;99.90;;;;;;489055;243;28027;-72
2022/04/16 11:15:35;;;;;;;2.80;2.60;;;12.40;99.90;;;;;;488975;243;28726;-72
2022/04/16 11:17:38;;;;;;;3.10;2.80;;;;;;;;;;488388;243;28645;-72
2022/04/16 11:22:30;;;;;;;2.80;2.60;;;12.30;99.90;;;;;;488996;243;29376;-71
2022/04/16 11:24:31;;;;;;;3.00;2.80;;;12.40;99.90;;;;;;489000;243;28218;-72
2022/04/16 11:36:05;;;;;;;2.90;2.30;;;12.30;99.90;;;;;;488973;243;28211;-73
2022/04/16 11:38:06;;;;;;;2.77;2.57;;;12.40;99.90;;;;;;489002;243;28688;-73
2022/04/16 11:42:39;;;;;;;2.53;2.43;;;12.90;99.90;;;;;;488914;243;28640;-73
2022/04/16 11:47:26;;;;;;;3.13;2.90;;;12.60;99.90;;;;;;488975;243;28187;-73
2022/04/16 11:49:27;;;;;;;4.50;3.50;;;12.40;99.90;;;;;;488998;243;28324;-73
2022/04/16 11:51:28;;;;;;;5.40;3.43;;;12.50;99.90;;;;;;488916;243;28190;-74
2022/04/16 11:55:55;;;;;;;3.63;3.43;;;12.90;99.90;;;;;;488976;243;29737;-71
2022/04/16 12:02:58;;;;;;;3.37;2.90;;;13.00;99.90;;;;;;488972;243;28147;-73
2022/04/16 12:05:03;;;;;;;3.37;3.07;;;12.80;99.90;;;;;;488985;243;28293;-73
2022/04/16 12:09:39;;;;;;;3.40;2.90;;;12.80;99.90;;;;;;488998;243;28710;-72
2022/04/16 12:14:15;;;;;;;2.90;2.70;;;13.10;99.90;;;;;;488863;243;28037;-74
2022/04/16 12:25:46;;;;;;;2.90;2.70;;;13.00;99.90;;;;;;481483;247;28176;-74
2022/04/16 12:27:47;;;;;;;2.90;2.70;;;12.90;99.90;;;;;;481527;245;28149;-74
2022/04/16 12:32:14;;;;;;;3.40;2.77;;;13.20;99.90;;;;;;481520;245;28783;-72
2022/04/16 12:36:39;;;;;;;2.93;2.73;;;13.00;99.90;;;;;;481559;246;28645;-74
2022/04/16 12:45:52;;;;;;;2.90;2.63;;;13.10;99.90;;;;;;494359;240;28243;-71
2022/04/16 12:47:54;;;;;;;2.73;2.53;;;12.90;99.90;;;;;;494396;240;28235;-73
2022/04/16 12:50:10;;;;;;;3.30;2.50;;;12.40;99.90;;;;;;494391;239;28589;-73
2022/04/16 12:52:11;;;;;;;2.73;2.53;;;12.60;99.90;;;;;;494339;240;28589;-73
2022/04/16 12:54:26;;;;;;;3.30;3.00;;;13.00;99.90;;;;;;494379;240;28203;-73
2022/04/16 12:56:27;;;;;;;2.83;2.60;;;;;;;;;;494368;240;28025;-71